CSCL Fuzhou — ELYA7 — position and weather

sailwx.info

Track history (hours):
 
Tides and Currents Weather Stations Pressure Air Temp Water Temp Dewpoint Dewpoint Depression Visibility Wind Speed Wind Dir Waves Ship Positions

CSCL Fuzhou

Last reported at 2014-Oct-26 04:33 UTC. Time now 2014-Oct-31 04:56 UTC.
Position N 01°15' E 104°02'.

Length 207.4 m; beam 29.8 m; draft 11.4 m.

Type: Ship (hazmat cat A). MMSI: 636016483.

Date/timePositionNaut miles runAvg speedWind from/ knotsBaromVisibWave heightAir tempDewpointWater temp
2014-Oct-26 04:33N 01°15' E 104°02'1414.1
2014-Oct-26 03:33N 01°10' E 103°48'1 0.0
2014-Oct-24 16:13N 01°10' E 103°47'812.9
2014-Oct-24 15:33N 01°13' E 103°55'1212.0
2014-Oct-24 14:32N 01°16' E 104°06'  
2014-Oct-18 13:11N 01°15' E 104°03'914.3
2014-Oct-18 12:33N 01°12' E 103°55'8 0.3
2014-Oct-17 09:23N 01°10' E 103°47'1011.8
2014-Oct-17 08:33N 01°14' E 103°56'1111.2
2014-Oct-17 07:34N 01°17' E 104°07'  
Track history (hours):
 
Tides and Currents Weather Stations Pressure Air Temp Water Temp Dewpoint Dewpoint Depression Visibility Wind Speed Wind Dir Waves Ship Positions

CSCL Fuzhou

Last reported at 2014-Oct-26 04:33 UTC. Time now 2014-Oct-31 04:56 UTC.
Position N 01°15' E 104°02'.

Length 207.4 m; beam 29.8 m; draft 11.4 m.

Type: Ship (hazmat cat A). MMSI: 636016483.

Date/timePositionNaut miles runAvg speedWind from/ knotsBaromVisibWave heightAir tempDewpointWater temp
2014-Oct-26 04:33N 01°15' E 104°02'1414.1
2014-Oct-26 03:33N 01°10' E 103°48'1 0.0
2014-Oct-24 16:13N 01°10' E 103°47'812.9
2014-Oct-24 15:33N 01°13' E 103°55'1212.0
2014-Oct-24 14:32N 01°16' E 104°06'  
2014-Oct-18 13:11N 01°15' E 104°03'914.3
2014-Oct-18 12:33N 01°12' E 103°55'8 0.3
2014-Oct-17 09:23N 01°10' E 103°47'1011.8
2014-Oct-17 08:33N 01°14' E 103°56'1111.2
2014-Oct-17 07:34N 01°17' E 104°07'  

Dump ship's entire track history